sensor_id;sensor_type;location;lat;lon;timestamp;temperature;humidity
15991;DHT22;8100;50.994;4.538;2023-03-12T00:02:33;3.50;1.00
15991;DHT22;8100;50.994;4.538;2023-03-12T00:05:21;3.50;1.00
15991;DHT22;8100;50.994;4.538;2023-03-12T00:08:10;3.50;1.00
15991;DHT22;8100;50.994;4.538;2023-03-12T00:10:58;3.50;1.00
15991;DHT22;8100;50.994;4.538;2023-03-12T00:13:48;3.50;1.00
15991;DHT22;8100;50.994;4.538;2023-03-12T00:16:36;3.50;1.00
15991;DHT22;8100;50.994;4.538;2023-03-12T00:19:24;3.50;1.00
15991;DHT22;8100;50.994;4.538;2023-03-12T00:22:11;3.50;1.00
15991;DHT22;8100;50.994;4.538;2023-03-12T00:24:59;3.50;1.00
15991;DHT22;8100;50.994;4.538;2023-03-12T00:27:46;3.50;1.00
15991;DHT22;8100;50.994;4.538;2023-03-12T00:30:33;3.50;1.00
15991;DHT22;8100;50.994;4.538;2023-03-12T00:33:22;3.50;1.00
15991;DHT22;8100;50.994;4.538;2023-03-12T00:36:09;3.50;1.00
15991;DHT22;8100;50.994;4.538;2023-03-12T00:38:58;3.50;1.00
15991;DHT22;8100;50.994;4.538;2023-03-12T00:41:46;3.40;1.00
15991;DHT22;8100;50.994;4.538;2023-03-12T00:44:33;3.40;1.00
15991;DHT22;8100;50.994;4.538;2023-03-12T00:47:20;3.40;1.00
15991;DHT22;8100;50.994;4.538;2023-03-12T00:50:09;3.50;1.00
15991;DHT22;8100;50.994;4.538;2023-03-12T00:52:57;3.50;1.00
15991;DHT22;8100;50.994;4.538;2023-03-12T00:55:44;3.60;1.00
15991;DHT22;8100;50.994;4.538;2023-03-12T00:58:31;3.60;1.00
15991;DHT22;8100;50.994;4.538;2023-03-12T01:01:18;3.60;1.00
15991;DHT22;8100;50.994;4.538;2023-03-12T01:04:06;3.60;1.00
15991;DHT22;8100;50.994;4.538;2023-03-12T01:06:55;3.70;1.00
15991;DHT22;8100;50.994;4.538;2023-03-12T01:09:42;3.70;1.00
15991;DHT22;8100;50.994;4.538;2023-03-12T01:12:29;3.70;1.00
15991;DHT22;8100;50.994;4.538;2023-03-12T01:15:17;3.80;1.00
15991;DHT22;8100;50.994;4.538;2023-03-12T01:18:05;3.80;1.00
15991;DHT22;8100;50.994;4.538;2023-03-12T01:20:52;3.80;1.00
15991;DHT22;8100;50.994;4.538;2023-03-12T01:23:41;3.80;1.00
15991;DHT22;8100;50.994;4.538;2023-03-12T01:26:28;3.90;1.00
15991;DHT22;8100;50.994;4.538;2023-03-12T01:29:15;3.90;1.00
15991;DHT22;8100;50.994;4.538;2023-03-12T01:32:02;3.90;1.00
15991;DHT22;8100;50.994;4.538;2023-03-12T01:34:50;3.80;1.00
15991;DHT22;8100;50.994;4.538;2023-03-12T01:37:37;3.90;1.00
15991;DHT22;8100;50.994;4.538;2023-03-12T01:40:25;3.90;1.00
15991;DHT22;8100;50.994;4.538;2023-03-12T01:43:23;3.90;1.00
15991;DHT22;8100;50.994;4.538;2023-03-12T01:46:25;3.90;1.00
15991;DHT22;8100;50.994;4.538;2023-03-12T01:49:17;3.90;1.00
15991;DHT22;8100;50.994;4.538;2023-03-12T01:52:07;3.90;1.00
15991;DHT22;8100;50.994;4.538;2023-03-12T01:54:58;3.90;1.00
15991;DHT22;8100;50.994;4.538;2023-03-12T01:57:51;3.90;1.00
15991;DHT22;8100;50.994;4.538;2023-03-12T02:00:41;3.90;1.00
15991;DHT22;8100;50.994;4.538;2023-03-12T02:03:28;3.90;1.00
15991;DHT22;8100;50.994;4.538;2023-03-12T02:06:19;3.90;1.00
15991;DHT22;8100;50.994;4.538;2023-03-12T02:09:07;3.90;1.00
15991;DHT22;8100;50.994;4.538;2023-03-12T02:11:54;4.00;1.00
15991;DHT22;8100;50.994;4.538;2023-03-12T02:14:43;3.90;1.00
15991;DHT22;8100;50.994;4.538;2023-03-12T02:17:31;3.90;1.00
15991;DHT22;8100;50.994;4.538;2023-03-12T02:20:22;3.90;1.00
15991;DHT22;8100;50.994;4.538;2023-03-12T02:23:17;3.90;1.00
15991;DHT22;8100;50.994;4.538;2023-03-12T02:26:09;3.90;1.00
15991;DHT22;8100;50.994;4.538;2023-03-12T02:28:58;3.90;1.00
15991;DHT22;8100;50.994;4.538;2023-03-12T02:31:49;3.90;1.00
15991;DHT22;8100;50.994;4.538;2023-03-12T02:34:37;3.90;1.00
15991;DHT22;8100;50.994;4.538;2023-03-12T02:37:25;3.90;1.00
15991;DHT22;8100;50.994;4.538;2023-03-12T02:40:16;3.80;1.00
15991;DHT22;8100;50.994;4.538;2023-03-12T02:43:06;3.90;1.00
15991;DHT22;8100;50.994;4.538;2023-03-12T02:45:54;3.80;1.00
15991;DHT22;8100;50.994;4.538;2023-03-12T02:48:42;3.80;1.00
15991;DHT22;8100;50.994;4.538;2023-03-12T02:51:29;3.80;1.00
15991;DHT22;8100;50.994;4.538;2023-03-12T02:54:18;3.80;1.00
15991;DHT22;8100;50.994;4.538;2023-03-12T02:57:05;3.80;1.00
15991;DHT22;8100;50.994;4.538;2023-03-12T02:59:54;3.80;1.00
15991;DHT22;8100;50.994;4.538;2023-03-12T03:02:41;3.80;1.00
15991;DHT22;8100;50.994;4.538;2023-03-12T03:05:29;3.80;1.00
15991;DHT22;8100;50.994;4.538;2023-03-12T03:08:16;3.80;1.00
15991;DHT22;8100;50.994;4.538;2023-03-12T03:11:04;3.80;1.00
15991;DHT22;8100;50.994;4.538;2023-03-12T03:13:52;3.80;1.00
15991;DHT22;8100;50.994;4.538;2023-03-12T03:16:41;3.80;1.00
15991;DHT22;8100;50.994;4.538;2023-03-12T03:19:29;3.80;1.00
15991;DHT22;8100;50.994;4.538;2023-03-12T03:22:16;3.80;1.00
15991;DHT22;8100;50.994;4.538;2023-03-12T03:25:05;3.80;1.00
15991;DHT22;8100;50.994;4.538;2023-03-12T03:27:52;3.80;1.00
15991;DHT22;8100;50.994;4.538;2023-03-12T03:30:39;3.80;1.00
15991;DHT22;8100;50.994;4.538;2023-03-12T03:33:30;3.70;1.00
15991;DHT22;8100;50.994;4.538;2023-03-12T03:36:17;3.70;1.00
15991;DHT22;8100;50.994;4.538;2023-03-12T03:39:05;3.70;1.00
15991;DHT22;8100;50.994;4.538;2023-03-12T03:41:52;3.70;1.00
15991;DHT22;8100;50.994;4.538;2023-03-12T03:44:39;3.70;1.00
15991;DHT22;8100;50.994;4.538;2023-03-12T03:47:26;3.70;1.00
15991;DHT22;8100;50.994;4.538;2023-03-12T03:50:15;3.70;1.00
15991;DHT22;8100;50.994;4.538;2023-03-12T03:53:03;3.70;1.00
15991;DHT22;8100;50.994;4.538;2023-03-12T03:55:50;3.70;1.00
15991;DHT22;8100;50.994;4.538;2023-03-12T03:58:37;3.80;1.00
15991;DHT22;8100;50.994;4.538;2023-03-12T04:01:25;3.70;1.00
15991;DHT22;8100;50.994;4.538;2023-03-12T04:04:12;3.80;1.00
15991;DHT22;8100;50.994;4.538;2023-03-12T04:07:00;3.70;1.00
15991;DHT22;8100;50.994;4.538;2023-03-12T04:09:48;3.80;1.00
15991;DHT22;8100;50.994;4.538;2023-03-12T04:12:36;3.80;1.00
15991;DHT22;8100;50.994;4.538;2023-03-12T04:15:23;3.80;1.00
15991;DHT22;8100;50.994;4.538;2023-03-12T04:18:10;3.80;1.00
15991;DHT22;8100;50.994;4.538;2023-03-12T04:20:57;3.80;1.40
15991;DHT22;8100;50.994;4.538;2023-03-12T04:23:46;3.80;6.70
15991;DHT22;8100;50.994;4.538;2023-03-12T04:26:34;3.80;12.00
15991;DHT22;8100;50.994;4.538;2023-03-12T04:29:21;3.80;13.60
15991;DHT22;8100;50.994;4.538;2023-03-12T04:32:08;3.80;17.20
15991;DHT22;8100;50.994;4.538;2023-03-12T04:34:55;3.80;28.10
15991;DHT22;8100;50.994;4.538;2023-03-12T04:37:42;3.80;36.10
15991;DHT22;8100;50.994;4.538;2023-03-12T04:40:31;3.80;45.30
15991;DHT22;8100;50.994;4.538;2023-03-12T04:43:18;3.80;59.10
15991;DHT22;8100;50.994;4.538;2023-03-12T04:46:07;3.90;68.30
15991;DHT22;8100;50.994;4.538;2023-03-12T04:48:54;3.90;75.60
15991;DHT22;8100;50.994;4.538;2023-03-12T04:51:42;3.90;92.20
15991;DHT22;8100;50.994;4.538;2023-03-12T04:54:30;3.90;99.90
15991;DHT22;8100;50.994;4.538;2023-03-12T04:57:19;3.90;99.90
15991;DHT22;8100;50.994;4.538;2023-03-12T05:00:08;3.90;99.90
15991;DHT22;8100;50.994;4.538;2023-03-12T05:02:57;3.90;99.90
15991;DHT22;8100;50.994;4.538;2023-03-12T05:05:45;4.00;99.90
15991;DHT22;8100;50.994;4.538;2023-03-12T05:08:32;4.00;99.90
15991;DHT22;8100;50.994;4.538;2023-03-12T05:11:19;4.00;99.90
15991;DHT22;8100;50.994;4.538;2023-03-12T05:14:09;4.00;99.90
15991;DHT22;8100;50.994;4.538;2023-03-12T05:16:57;4.00;99.90
15991;DHT22;8100;50.994;4.538;2023-03-12T05:19:44;4.00;99.90
15991;DHT22;8100;50.994;4.538;2023-03-12T05:25:18;4.10;1.00
15991;DHT22;8100;50.994;4.538;2023-03-12T05:28:06;4.10;1.00
15991;DHT22;8100;50.994;4.538;2023-03-12T05:30:55;4.20;1.00
15991;DHT22;8100;50.994;4.538;2023-03-12T05:33:44;4.20;1.00
15991;DHT22;8100;50.994;4.538;2023-03-12T05:36:31;4.20;1.00
15991;DHT22;8100;50.994;4.538;2023-03-12T05:39:18;4.20;1.00
15991;DHT22;8100;50.994;4.538;2023-03-12T05:42:06;4.30;1.00
15991;DHT22;8100;50.994;4.538;2023-03-12T05:44:53;4.30;1.00
15991;DHT22;8100;50.994;4.538;2023-03-12T05:47:42;4.30;1.00
15991;DHT22;8100;50.994;4.538;2023-03-12T05:50:29;4.40;1.00
15991;DHT22;8100;50.994;4.538;2023-03-12T05:53:16;4.40;1.00
15991;DHT22;8100;50.994;4.538;2023-03-12T05:56:04;4.50;13.90
15991;DHT22;8100;50.994;4.538;2023-03-12T05:58:52;4.60;27.80
15991;DHT22;8100;50.994;4.538;2023-03-12T06:01:40;4.70;93.20
15991;DHT22;8100;50.994;4.538;2023-03-12T06:04:29;4.60;98.50
15991;DHT22;8100;50.994;4.538;2023-03-12T06:07:16;4.60;99.90
15991;DHT22;8100;50.994;4.538;2023-03-12T06:10:04;4.70;99.90
15991;DHT22;8100;50.994;4.538;2023-03-12T06:12:52;4.80;99.90
15991;DHT22;8100;50.994;4.538;2023-03-12T06:15:39;4.70;99.90
15991;DHT22;8100;50.994;4.538;2023-03-12T06:18:26;4.90;99.90
15991;DHT22;8100;50.994;4.538;2023-03-12T06:21:17;4.70;99.90
15991;DHT22;8100;50.994;4.538;2023-03-12T06:24:05;5.00;99.90
15991;DHT22;8100;50.994;4.538;2023-03-12T06:26:52;4.80;99.90
15991;DHT22;8100;50.994;4.538;2023-03-12T06:29:39;5.20;99.90
15991;DHT22;8100;50.994;4.538;2023-03-12T06:32:27;5.40;99.90
15991;DHT22;8100;50.994;4.538;2023-03-12T06:35:14;4.90;99.90
15991;DHT22;8100;50.994;4.538;2023-03-12T06:38:02;4.90;99.90
15991;DHT22;8100;50.994;4.538;2023-03-12T06:40:54;5.50;99.90
15991;DHT22;8100;50.994;4.538;2023-03-12T06:43:42;5.20;99.90
15991;DHT22;8100;50.994;4.538;2023-03-12T06:46:29;5.10;99.90
15991;DHT22;8100;50.994;4.538;2023-03-12T06:49:17;5.30;99.90
15991;DHT22;8100;50.994;4.538;2023-03-12T06:52:04;5.90;99.90
15991;DHT22;8100;50.994;4.538;2023-03-12T06:54:53;5.60;99.90
15991;DHT22;8100;50.994;4.538;2023-03-12T06:57:40;6.00;99.90
15991;DHT22;8100;50.994;4.538;2023-03-12T07:00:27;6.00;99.90
15991;DHT22;8100;50.994;4.538;2023-03-12T07:03:14;6.40;99.90
15991;DHT22;8100;50.994;4.538;2023-03-12T07:06:02;6.00;99.90
15991;DHT22;8100;50.994;4.538;2023-03-12T07:08:50;6.00;99.90
15991;DHT22;8100;50.994;4.538;2023-03-12T07:11:39;6.60;99.90
15991;DHT22;8100;50.994;4.538;2023-03-12T07:14:26;6.90;99.90
15991;DHT22;8100;50.994;4.538;2023-03-12T07:17:13;6.90;99.90
15991;DHT22;8100;50.994;4.538;2023-03-12T07:20:00;6.30;99.90
15991;DHT22;8100;50.994;4.538;2023-03-12T07:22:47;7.10;99.90
15991;DHT22;8100;50.994;4.538;2023-03-12T07:25:36;7.50;99.90
15991;DHT22;8100;50.994;4.538;2023-03-12T07:28:24;7.60;99.90
15991;DHT22;8100;50.994;4.538;2023-03-12T07:31:12;7.20;99.90
15991;DHT22;8100;50.994;4.538;2023-03-12T07:33:59;7.40;99.90
15991;DHT22;8100;50.994;4.538;2023-03-12T07:36:47;8.00;99.90
15991;DHT22;8100;50.994;4.538;2023-03-12T07:39:35;7.30;99.90
15991;DHT22;8100;50.994;4.538;2023-03-12T07:42:22;7.80;99.90
15991;DHT22;8100;50.994;4.538;2023-03-12T07:45:11;8.00;99.90
15991;DHT22;8100;50.994;4.538;2023-03-12T07:47:58;7.30;99.90
15991;DHT22;8100;50.994;4.538;2023-03-12T07:50:45;8.10;99.90
15991;DHT22;8100;50.994;4.538;2023-03-12T07:53:32;8.40;99.90
15991;DHT22;8100;50.994;4.538;2023-03-12T07:56:19;7.90;99.90
15991;DHT22;8100;50.994;4.538;2023-03-12T07:59:07;8.40;99.90
15991;DHT22;8100;50.994;4.538;2023-03-12T08:01:55;7.50;99.90
15991;DHT22;8100;50.994;4.538;2023-03-12T08:04:42;7.60;99.90
15991;DHT22;8100;50.994;4.538;2023-03-12T08:07:30;8.70;99.90
15991;DHT22;8100;50.994;4.538;2023-03-12T08:10:20;8.80;99.90
15991;DHT22;8100;50.994;4.538;2023-03-12T08:13:08;7.70;99.90
15991;DHT22;8100;50.994;4.538;2023-03-12T08:15:55;7.70;99.90
15991;DHT22;8100;50.994;4.538;2023-03-12T08:18:43;8.20;99.90
15991;DHT22;8100;50.994;4.538;2023-03-12T08:21:31;7.90;99.90
15991;DHT22;8100;50.994;4.538;2023-03-12T08:24:20;8.10;99.90
15991;DHT22;8100;50.994;4.538;2023-03-12T08:27:07;8.10;99.90
15991;DHT22;8100;50.994;4.538;2023-03-12T08:29:57;9.00;99.90
15991;DHT22;8100;50.994;4.538;2023-03-12T08:32:44;9.20;99.90
15991;DHT22;8100;50.994;4.538;2023-03-12T08:35:32;8.40;99.90
15991;DHT22;8100;50.994;4.538;2023-03-12T08:38:19;8.50;99.90
15991;DHT22;8100;50.994;4.538;2023-03-12T08:41:07;9.10;99.90
15991;DHT22;8100;50.994;4.538;2023-03-12T08:43:55;8.70;99.90
15991;DHT22;8100;50.994;4.538;2023-03-12T08:46:42;9.40;99.90
15991;DHT22;8100;50.994;4.538;2023-03-12T08:49:29;8.90;99.90
15991;DHT22;8100;50.994;4.538;2023-03-12T08:52:18;9.60;99.90
15991;DHT22;8100;50.994;4.538;2023-03-12T08:55:05;9.30;99.90
15991;DHT22;8100;50.994;4.538;2023-03-12T08:57:53;9.40;99.90
15991;DHT22;8100;50.994;4.538;2023-03-12T09:00:40;9.40;99.90
15991;DHT22;8100;50.994;4.538;2023-03-12T09:03:27;9.90;99.90
15991;DHT22;8100;50.994;4.538;2023-03-12T09:06:15;9.60;99.90
15991;DHT22;8100;50.994;4.538;2023-03-12T09:09:05;9.90;99.90
15991;DHT22;8100;50.994;4.538;2023-03-12T09:11:54;10.00;99.90
15991;DHT22;8100;50.994;4.538;2023-03-12T09:14:41;9.80;99.90
15991;DHT22;8100;50.994;4.538;2023-03-12T09:17:28;10.00;99.90
15991;DHT22;8100;50.994;4.538;2023-03-12T09:20:16;10.10;99.90
15991;DHT22;8100;50.994;4.538;2023-03-12T09:23:03;10.20;99.90
15991;DHT22;8100;50.994;4.538;2023-03-12T09:25:52;10.10;99.90
15991;DHT22;8100;50.994;4.538;2023-03-12T09:28:40;10.10;99.90
15991;DHT22;8100;50.994;4.538;2023-03-12T09:31:30;10.10;99.90
15991;DHT22;8100;50.994;4.538;2023-03-12T09:34:17;10.30;99.90
15991;DHT22;8100;50.994;4.538;2023-03-12T09:37:04;10.40;99.90
15991;DHT22;8100;50.994;4.538;2023-03-12T09:39:52;10.50;99.90
15991;DHT22;8100;50.994;4.538;2023-03-12T09:42:44;10.70;99.90
15991;DHT22;8100;50.994;4.538;2023-03-12T09:45:36;10.80;99.90
15991;DHT22;8100;50.994;4.538;2023-03-12T09:48:29;10.80;99.90
15991;DHT22;8100;50.994;4.538;2023-03-12T09:51:22;10.80;99.90
15991;DHT22;8100;50.994;4.538;2023-03-12T09:54:21;10.90;99.90
15991;DHT22;8100;50.994;4.538;2023-03-12T09:57:12;11.30;99.90
15991;DHT22;8100;50.994;4.538;2023-03-12T10:00:01;11.40;99.90
15991;DHT22;8100;50.994;4.538;2023-03-12T10:03:15;11.30;99.90
15991;DHT22;8100;50.994;4.538;2023-03-12T10:06:09;11.30;99.90
15991;DHT22;8100;50.994;4.538;2023-03-12T10:09:06;11.20;99.90
15991;DHT22;8100;50.994;4.538;2023-03-12T10:12:03;11.20;99.90
15991;DHT22;8100;50.994;4.538;2023-03-12T10:15:02;11.20;99.90
15991;DHT22;8100;50.994;4.538;2023-03-12T10:17:59;11.40;99.90
15991;DHT22;8100;50.994;4.538;2023-03-12T10:21:06;11.70;99.90
15991;DHT22;8100;50.994;4.538;2023-03-12T10:24:11;11.60;99.90
15991;DHT22;8100;50.994;4.538;2023-03-12T10:27:10;11.30;99.90
15991;DHT22;8100;50.994;4.538;2023-03-12T10:29:58;11.30;99.90
15991;DHT22;8100;50.994;4.538;2023-03-12T10:32:50;11.20;99.90
15991;DHT22;8100;50.994;4.538;2023-03-12T10:35:39;11.20;99.90
15991;DHT22;8100;50.994;4.538;2023-03-12T10:38:28;11.30;99.90
15991;DHT22;8100;50.994;4.538;2023-03-12T10:41:21;11.20;99.90
15991;DHT22;8100;50.994;4.538;2023-03-12T10:44:13;11.30;99.90
15991;DHT22;8100;50.994;4.538;2023-03-12T10:47:22;11.40;99.90
15991;DHT22;8100;50.994;4.538;2023-03-12T10:50:15;11.60;99.90
15991;DHT22;8100;50.994;4.538;2023-03-12T10:53:18;11.80;99.90
15991;DHT22;8100;50.994;4.538;2023-03-12T10:56:08;11.90;99.90
15991;DHT22;8100;50.994;4.538;2023-03-12T10:58:55;12.10;99.90
15991;DHT22;8100;50.994;4.538;2023-03-12T11:01:46;12.20;99.90
15991;DHT22;8100;50.994;4.538;2023-03-12T11:04:36;12.30;99.90
15991;DHT22;8100;50.994;4.538;2023-03-12T11:07:27;12.30;99.90
15991;DHT22;8100;50.994;4.538;2023-03-12T11:10:18;12.10;99.90
15991;DHT22;8100;50.994;4.538;2023-03-12T11:13:24;12.20;99.90
15991;DHT22;8100;50.994;4.538;2023-03-12T11:16:24;12.10;99.90
15991;DHT22;8100;50.994;4.538;2023-03-12T11:19:14;12.10;99.90
15991;DHT22;8100;50.994;4.538;2023-03-12T11:22:11;12.10;99.90
15991;DHT22;8100;50.994;4.538;2023-03-12T11:25:05;12.20;99.90
15991;DHT22;8100;50.994;4.538;2023-03-12T11:27:54;12.30;99.90
15991;DHT22;8100;50.994;4.538;2023-03-12T11:30:43;12.30;99.90
15991;DHT22;8100;50.994;4.538;2023-03-12T11:33:30;12.20;99.90
15991;DHT22;8100;50.994;4.538;2023-03-12T11:36:30;12.10;99.90
15991;DHT22;8100;50.994;4.538;2023-03-12T11:39:27;11.90;99.90
15991;DHT22;8100;50.994;4.538;2023-03-12T11:42:26;11.80;99.90
15991;DHT22;8100;50.994;4.538;2023-03-12T11:45:24;11.80;99.90
15991;DHT22;8100;50.994;4.538;2023-03-12T11:48:20;12.00;99.90
15991;DHT22;8100;50.994;4.538;2023-03-12T11:51:18;12.20;99.90
15991;DHT22;8100;50.994;4.538;2023-03-12T11:57:40;12.40;99.90
15991;DHT22;8100;50.994;4.538;2023-03-12T12:00:35;12.50;99.90
15991;DHT22;8100;50.994;4.538;2023-03-12T12:06:59;12.30;99.90
15991;DHT22;8100;50.994;4.538;2023-03-12T12:09:54;12.30;99.90
15991;DHT22;8100;50.994;4.538;2023-03-12T12:12:52;12.50;99.90
15991;DHT22;8100;50.994;4.538;2023-03-12T12:15:49;12.50;99.90
15991;DHT22;8100;50.994;4.538;2023-03-12T12:18:52;12.60;99.90
15991;DHT22;8100;50.994;4.538;2023-03-12T12:21:51;12.60;99.90
15991;DHT22;8100;50.994;4.538;2023-03-12T12:24:51;12.60;99.90
15991;DHT22;8100;50.994;4.538;2023-03-12T12:27:45;12.70;99.90
15991;DHT22;8100;50.994;4.538;2023-03-12T12:30:48;12.90;99.90
15991;DHT22;8100;50.994;4.538;2023-03-12T12:33:54;12.80;99.90
15991;DHT22;8100;50.994;4.538;2023-03-12T12:36:51;12.80;99.90
15991;DHT22;8100;50.994;4.538;2023-03-12T12:39:41;12.70;99.90
15991;DHT22;8100;50.994;4.538;2023-03-12T12:42:34;12.70;99.90
15991;DHT22;8100;50.994;4.538;2023-03-12T12:45:24;12.50;99.90
15991;DHT22;8100;50.994;4.538;2023-03-12T12:48:17;12.50;99.90
15991;DHT22;8100;50.994;4.538;2023-03-12T12:51:07;12.70;99.90
15991;DHT22;8100;50.994;4.538;2023-03-12T12:53:58;12.60;99.90
15991;DHT22;8100;50.994;4.538;2023-03-12T12:56:50;12.60;99.90
15991;DHT22;8100;50.994;4.538;2023-03-12T12:59:41;12.70;99.90
15991;DHT22;8100;50.994;4.538;2023-03-12T13:02:30;12.80;99.90
15991;DHT22;8100;50.994;4.538;2023-03-12T13:05:25;12.90;99.90
15991;DHT22;8100;50.994;4.538;2023-03-12T13:08:32;12.90;99.90
15991;DHT22;8100;50.994;4.538;2023-03-12T13:11:28;12.90;99.90
15991;DHT22;8100;50.994;4.538;2023-03-12T13:14:33;13.00;99.90
15991;DHT22;8100;50.994;4.538;2023-03-12T13:17:27;13.00;99.90
15991;DHT22;8100;50.994;4.538;2023-03-12T13:20:15;13.20;99.90
15991;DHT22;8100;50.994;4.538;2023-03-12T13:23:23;13.10;99.90
15991;DHT22;8100;50.994;4.538;2023-03-12T13:26:19;13.10;99.90
15991;DHT22;8100;50.994;4.538;2023-03-12T13:29:21;13.30;99.90
15991;DHT22;8100;50.994;4.538;2023-03-12T13:32:35;13.20;99.90
15991;DHT22;8100;50.994;4.538;2023-03-12T13:35:35;12.90;99.90
15991;DHT22;8100;50.994;4.538;2023-03-12T13:38:36;12.70;99.90
15991;DHT22;8100;50.994;4.538;2023-03-12T13:41:32;12.60;99.90
15991;DHT22;8100;50.994;4.538;2023-03-12T13:44:36;12.70;99.90
15991;DHT22;8100;50.994;4.538;2023-03-12T13:47:27;13.10;99.90
15991;DHT22;8100;50.994;4.538;2023-03-12T13:50:16;12.90;99.90
15991;DHT22;8100;50.994;4.538;2023-03-12T13:53:05;12.60;99.90
15991;DHT22;8100;50.994;4.538;2023-03-12T13:56:04;12.60;99.90
15991;DHT22;8100;50.994;4.538;2023-03-12T13:58:55;12.80;99.90
15991;DHT22;8100;50.994;4.538;2023-03-12T14:01:47;12.90;99.90
15991;DHT22;8100;50.994;4.538;2023-03-12T14:04:37;12.60;99.90
15991;DHT22;8100;50.994;4.538;2023-03-12T14:07:56;12.60;99.90
15991;DHT22;8100;50.994;4.538;2023-03-12T14:11:05;12.40;99.90
15991;DHT22;8100;50.994;4.538;2023-03-12T14:17:15;12.60;99.90
15991;DHT22;8100;50.994;4.538;2023-03-12T14:20:09;12.70;99.90
15991;DHT22;8100;50.994;4.538;2023-03-12T14:22:59;12.80;99.90
15991;DHT22;8100;50.994;4.538;2023-03-12T14:25:47;12.80;99.90
15991;DHT22;8100;50.994;4.538;2023-03-12T14:28:40;12.60;99.90
15991;DHT22;8100;50.994;4.538;2023-03-12T14:31:28;12.50;99.90
15991;DHT22;8100;50.994;4.538;2023-03-12T14:34:17;12.60;99.90
15991;DHT22;8100;50.994;4.538;2023-03-12T14:37:12;12.60;99.90
15991;DHT22;8100;50.994;4.538;2023-03-12T14:40:19;12.70;99.90
15991;DHT22;8100;50.994;4.538;2023-03-12T14:43:21;12.80;99.90
15991;DHT22;8100;50.994;4.538;2023-03-12T14:46:14;13.10;99.90
15991;DHT22;8100;50.994;4.538;2023-03-12T14:49:01;13.00;99.90
15991;DHT22;8100;50.994;4.538;2023-03-12T14:51:49;12.70;99.90
15991;DHT22;8100;50.994;4.538;2023-03-12T14:54:36;12.70;99.90
15991;DHT22;8100;50.994;4.538;2023-03-12T14:57:25;12.70;99.90
15991;DHT22;8100;50.994;4.538;2023-03-12T15:00:22;12.90;99.90
15991;DHT22;8100;50.994;4.538;2023-03-12T15:03:13;13.30;99.90
15991;DHT22;8100;50.994;4.538;2023-03-12T15:06:01;13.00;99.90
15991;DHT22;8100;50.994;4.538;2023-03-12T15:08:48;12.80;99.90
15991;DHT22;8100;50.994;4.538;2023-03-12T15:11:36;12.80;99.90
15991;DHT22;8100;50.994;4.538;2023-03-12T15:14:26;12.60;99.90
15991;DHT22;8100;50.994;4.538;2023-03-12T15:17:16;12.60;99.90
15991;DHT22;8100;50.994;4.538;2023-03-12T15:20:05;12.50;99.90
15991;DHT22;8100;50.994;4.538;2023-03-12T15:22:54;12.50;99.90
15991;DHT22;8100;50.994;4.538;2023-03-12T15:25:42;12.40;99.90
15991;DHT22;8100;50.994;4.538;2023-03-12T15:28:29;12.40;99.90
15991;DHT22;8100;50.994;4.538;2023-03-12T15:31:18;12.40;99.90
15991;DHT22;8100;50.994;4.538;2023-03-12T15:34:06;12.30;99.90
15991;DHT22;8100;50.994;4.538;2023-03-12T15:36:53;12.30;99.90
15991;DHT22;8100;50.994;4.538;2023-03-12T15:39:47;12.30;99.90
15991;DHT22;8100;50.994;4.538;2023-03-12T15:42:37;12.30;99.90
15991;DHT22;8100;50.994;4.538;2023-03-12T15:45:32;12.30;99.90
15991;DHT22;8100;50.994;4.538;2023-03-12T15:48:25;12.30;99.90
15991;DHT22;8100;50.994;4.538;2023-03-12T15:51:29;12.30;99.90
15991;DHT22;8100;50.994;4.538;2023-03-12T15:54:24;12.30;99.90
15991;DHT22;8100;50.994;4.538;2023-03-12T15:57:20;12.30;99.90
15991;DHT22;8100;50.994;4.538;2023-03-12T16:00:20;12.20;99.90
15991;DHT22;8100;50.994;4.538;2023-03-12T16:03:14;12.20;99.90
15991;DHT22;8100;50.994;4.538;2023-03-12T16:06:04;12.20;99.90
15991;DHT22;8100;50.994;4.538;2023-03-12T16:08:54;12.20;99.90
15991;DHT22;8100;50.994;4.538;2023-03-12T16:11:42;12.20;99.90
15991;DHT22;8100;50.994;4.538;2023-03-12T16:14:30;12.20;99.90
15991;DHT22;8100;50.994;4.538;2023-03-12T16:17:20;12.20;99.90
15991;DHT22;8100;50.994;4.538;2023-03-12T16:20:11;12.20;99.90
15991;DHT22;8100;50.994;4.538;2023-03-12T16:23:00;12.10;99.90
15991;DHT22;8100;50.994;4.538;2023-03-12T16:25:50;12.10;99.90
15991;DHT22;8100;50.994;4.538;2023-03-12T16:28:37;12.10;99.90
15991;DHT22;8100;50.994;4.538;2023-03-12T16:31:25;12.10;99.90
15991;DHT22;8100;50.994;4.538;2023-03-12T16:34:12;12.00;99.90
15991;DHT22;8100;50.994;4.538;2023-03-12T16:36:59;12.00;99.90
15991;DHT22;8100;50.994;4.538;2023-03-12T16:39:48;12.00;99.90
15991;DHT22;8100;50.994;4.538;2023-03-12T16:42:35;12.00;99.90
15991;DHT22;8100;50.994;4.538;2023-03-12T16:45:23;11.90;99.90
15991;DHT22;8100;50.994;4.538;2023-03-12T16:48:14;11.90;99.90
15991;DHT22;8100;50.994;4.538;2023-03-12T16:51:02;11.90;99.90
15991;DHT22;8100;50.994;4.538;2023-03-12T16:53:49;11.90;99.90
15991;DHT22;8100;50.994;4.538;2023-03-12T16:56:41;11.80;99.90
15991;DHT22;8100;50.994;4.538;2023-03-12T16:59:28;11.80;99.90
15991;DHT22;8100;50.994;4.538;2023-03-12T17:02:18;11.80;99.90
15991;DHT22;8100;50.994;4.538;2023-03-12T17:05:07;11.80;99.90
15991;DHT22;8100;50.994;4.538;2023-03-12T17:07:54;11.80;99.90
15991;DHT22;8100;50.994;4.538;2023-03-12T17:10:42;11.70;99.90
15991;DHT22;8100;50.994;4.538;2023-03-12T17:13:31;11.70;99.90
15991;DHT22;8100;50.994;4.538;2023-03-12T17:16:18;11.60;99.90
15991;DHT22;8100;50.994;4.538;2023-03-12T17:19:05;11.50;99.90
15991;DHT22;8100;50.994;4.538;2023-03-12T17:21:52;11.40;99.90
15991;DHT22;8100;50.994;4.538;2023-03-12T17:24:40;11.40;99.90
15991;DHT22;8100;50.994;4.538;2023-03-12T17:27:27;11.40;99.90
15991;DHT22;8100;50.994;4.538;2023-03-12T17:30:16;11.30;99.90
15991;DHT22;8100;50.994;4.538;2023-03-12T17:33:07;11.30;99.90
15991;DHT22;8100;50.994;4.538;2023-03-12T17:35:56;11.30;99.90
15991;DHT22;8100;50.994;4.538;2023-03-12T17:38:43;11.30;99.90
15991;DHT22;8100;50.994;4.538;2023-03-12T17:41:31;11.20;99.90
15991;DHT22;8100;50.994;4.538;2023-03-12T17:44:18;11.20;99.90
15991;DHT22;8100;50.994;4.538;2023-03-12T17:47:07;11.20;99.90
15991;DHT22;8100;50.994;4.538;2023-03-12T17:49:54;11.20;99.90
15991;DHT22;8100;50.994;4.538;2023-03-12T17:52:42;11.20;99.90
15991;DHT22;8100;50.994;4.538;2023-03-12T17:55:29;11.10;99.90
15991;DHT22;8100;50.994;4.538;2023-03-12T17:58:16;11.10;99.90
15991;DHT22;8100;50.994;4.538;2023-03-12T18:01:03;11.10;99.90
15991;DHT22;8100;50.994;4.538;2023-03-12T18:03:52;11.10;99.90
15991;DHT22;8100;50.994;4.538;2023-03-12T18:06:39;11.10;99.90
15991;DHT22;8100;50.994;4.538;2023-03-12T18:09:26;11.10;99.90
15991;DHT22;8100;50.994;4.538;2023-03-12T18:12:13;11.00;99.90
15991;DHT22;8100;50.994;4.538;2023-03-12T18:15:01;11.00;99.90
15991;DHT22;8100;50.994;4.538;2023-03-12T18:17:48;11.00;99.90
15991;DHT22;8100;50.994;4.538;2023-03-12T18:20:38;11.00;99.90
15991;DHT22;8100;50.994;4.538;2023-03-12T18:23:25;10.90;99.90
15991;DHT22;8100;50.994;4.538;2023-03-12T18:26:12;10.90;99.90
15991;DHT22;8100;50.994;4.538;2023-03-12T18:28:59;10.80;99.90
15991;DHT22;8100;50.994;4.538;2023-03-12T18:31:47;10.70;99.90
15991;DHT22;8100;50.994;4.538;2023-03-12T18:34:34;10.60;99.90
15991;DHT22;8100;50.994;4.538;2023-03-12T18:37:23;10.60;99.90
15991;DHT22;8100;50.994;4.538;2023-03-12T18:40:11;10.60;99.90